地図

経路データ

SID SEASON NUMBER BASIN SUBBASIN NAME ISO_TIME NATURE LAT LON WMO_WIND WMO_PRES WMO_AGENCY TRACK_TYPE DIST2LAND LANDFALL IFLAG USA_AGENCY USA_ATCF_ID USA_LAT USA_LON USA_RECORD USA_STATUS USA_WIND USA_PRES USA_SSHS USA_R34_NE USA_R34_SE USA_R34_SW USA_R34_NW USA_R50_NE USA_R50_SE USA_R50_SW USA_R50_NW USA_R64_NE USA_R64_SE USA_R64_SW USA_R64_NW USA_POCI USA_ROCI USA_RMW USA_EYE TOKYO_LAT TOKYO_LON TOKYO_GRADE TOKYO_WIND TOKYO_PRES TOKYO_R50_DIR TOKYO_R50_LONG TOKYO_R50_SHORT TOKYO_R30_DIR TOKYO_R30_LONG TOKYO_R30_SHORT TOKYO_LAND CMA_LAT CMA_LON CMA_CAT CMA_WIND CMA_PRES HKO_LAT HKO_LON HKO_CAT HKO_WIND HKO_PRES NEWDELHI_LAT NEWDELHI_LON NEWDELHI_GRADE NEWDELHI_WIND NEWDELHI_PRES NEWDELHI_CI NEWDELHI_DP NEWDELHI_POCI REUNION_LAT REUNION_LON REUNION_TYPE REUNION_WIND REUNION_PRES REUNION_TNUM REUNION_CI REUNION_RMW REUNION_R34_NE REUNION_R34_SE REUNION_R34_SW REUNION_R34_NW REUNION_R50_NE REUNION_R50_SE REUNION_R50_SW REUNION_R50_NW REUNION_R64_NE REUNION_R64_SE REUNION_R64_SW REUNION_R64_NW BOM_LAT BOM_LON BOM_TYPE BOM_WIND BOM_PRES BOM_TNUM BOM_CI BOM_RMW BOM_R34_NE BOM_R34_SE BOM_R34_SW BOM_R34_NW BOM_R50_NE BOM_R50_SE BOM_R50_SW BOM_R50_NW BOM_R64_NE BOM_R64_SE BOM_R64_SW BOM_R64_NW BOM_ROCI BOM_POCI BOM_EYE BOM_POS_METHOD BOM_PRES_METHOD NADI_LAT NADI_LON NADI_CAT NADI_WIND NADI_PRES WELLINGTON_LAT WELLINGTON_LON WELLINGTON_WIND WELLINGTON_PRES DS824_LAT DS824_LON DS824_STAGE DS824_WIND DS824_PRES TD9636_LAT TD9636_LON TD9636_STAGE TD9636_WIND TD9636_PRES TD9635_LAT TD9635_LON TD9635_WIND TD9635_PRES TD9635_ROCI NEUMANN_LAT NEUMANN_LON NEUMANN_CLASS NEUMANN_WIND NEUMANN_PRES MLC_LAT MLC_LON MLC_CLASS MLC_WIND MLC_PRES USA_GUST BOM_GUST BOM_GUST_PER REUNION_GUST REUNION_GUST_PER USA_SEAHGT USA_SEARAD_NE USA_SEARAD_SE USA_SEARAD_SW USA_SEARAD_NW STORM_SPEED STORM_DIR
1973060S14132 1973 30 SI WA LEAH(REGENE 1973-03-01 09:00:00 TS -13.8732 132.284 spur-other 0 0 ______________ -1 24 273
1973060S14132 1973 30 SI WA LEAH(REGENE 1973-03-01 12:00:00 TS -13.8144 131.043 spur-other 0 0 ______________ -1 25 273
1973060S14132 1973 30 SI WA LEAH(REGENE 1973-03-01 15:00:00 TS -13.7602 129.726 spur-other 10 10 ______________ -1 26 272
1973060S14132 1973 30 SI WA LEAH(REGENE 1973-03-01 18:00:00 TS -13.7193 128.379 spur-other 94 11 ______________ -1 26 271
1973060S14132 1973 30 SI WA LEAH(REGENE 1973-03-01 21:00:00 TS -13.7018 127.049 spur-other 11 11 ______________ -1 25 270
1973060S14132 1973 30 SI WA LEAH(REGENE 1973-03-02 00:00:00 TS -13.7182 125.779 spur-other 46 46 ______________ -1 24 268
1973060S14132 1973 30 SI WA LEAH(REGENE 1973-03-02 03:00:00 TS -13.7801 124.615 spur-other 110 110 ______________ -1 21 265
1973060S14132 1973 30 SI WA LEAH(REGENE 1973-03-02 06:00:00 TS -13.9000 123.600 spur-other 189 189 _________O____ -1 -13.9000 123.600 TC 20 1004 18 259
1973060S14132 1973 30 SI WA LEAH(REGENE 1973-03-02 09:00:00 TS -14.1327 122.784 spur-other 240 240 _________P____ -1 -14.1483 122.786 TC 20 1004 16 256
1973060S14132 1973 30 SI WA LEAH(REGENE 1973-03-02 12:00:00 TS -14.3000 122.000 spur-other 264 264 _________O____ -1 -14.3000 122.000 TC 20 1004 15 264
1973060S14132 1973 30 SI WA LEAH(REGENE 1973-03-02 15:00:00 TS -14.2942 121.245 spur-other 306 306 _________P____ -1 -14.2942 121.245 TC 20 1004 16 274
1973060S14132 1973 30 SI WA LEAH(REGENE 1973-03-02 18:00:00 TS -14.2000 120.400 spur-other 371 371 _________O____ -1 -14.2000 120.400 TC 20 1004 18 277
1973060S14132 1973 30 SI WA LEAH(REGENE 1973-03-02 21:00:00 TS -14.0689 119.419 spur-other 442 437 _________P____ -1 -14.0689 119.419 TC 25 1002 21 275
1973060S14132 1973 30 SI WA LEAH(REGENE 1973-03-03 00:00:00 TS -14.0000 118.200 spur-other 477 477 _________O____ -1 -14.0000 118.200 TC 30 1001 25 272
1973060S14132 1973 30 SI WA LEAH(REGENE 1973-03-03 01:00:00 TS -14.0141 117.708 spur-other 505 505 _________P____ -1 -14.0141 117.708 TC 30 1000 31 267
1973060S14132 1973 30 SI WA LEAH(REGENE 1973-03-03 03:00:00 TS -14.0911 116.630 spur-other 561 561 _________P____ -1 -14.0911 116.630 TC 30 1000 32 265
1973060S14132 1973 30 SI WA LEAH(REGENE 1973-03-03 04:00:00 TS -14.1501 116.074 spur-other 579 579 _________P____ -1 -14.1501 116.074 TC 30 999 32 262
1973060S14132 1973 30 SI WA LEAH(REGENE 1973-03-03 06:00:00 TS -14.3000 115.000 spur-other 612 612 _________O____ -1 -14.3000 115.000 TC 30 999 31 261
1973060S14132 1973 30 SI WA LEAH(REGENE 1973-03-03 07:00:00 TS -14.3877 114.509 spur-other 627 627 _________P____ -1 -14.3877 114.509 TC 30 998 28 258
1973060S14132 1973 30 SI WA LEAH(REGENE 1973-03-03 09:00:00 TS -14.5919 113.588 spur-other 658 658 _________P____ -1 -14.5919 113.588 TC 32 997 27 257
1973060S14132 1973 30 SI WA LEAH(REGENE 1973-03-03 10:00:00 TS -14.6991 113.164 spur-other 678 678 _________P____ -1 -14.6991 113.164 TC 33 997 24 255
1973060S14132 1973 30 SI WA LEAH(REGENE 1973-03-03 12:00:00 TS -14.9000 112.400 spur-other 721 721 _________O____ -1 -14.9000 112.400 TC 35 996 22 256
1973060S14132 1973 30 SI WA LEAH(REGENE 1973-03-03 13:00:00 TS -14.9669 112.060 spur-other 740 739 _________P____ -1 -14.9669 112.060 TC 35 995 18 258
1973060S14132 1973 30 SI WA LEAH(REGENE 1973-03-03 15:00:00 TS -15.0839 111.467 spur-other 750 750 _________P____ -1 -15.0839 111.467 TC 37 995 17 258
1973060S14132 1973 30 SI WA LEAH(REGENE 1973-03-03 16:00:00 TS -15.1451 111.201 spur-other 752 752 _________P____ -1 -15.1451 111.201 TC 38 995 15 254
1973060S14132 1973 30 SI WA LEAH(REGENE 1973-03-03 18:00:00 TS -15.3000 110.700 spur-other 780 780 _________O____ -1 -15.3000 110.700 TC 40 995 16 250
1973060S14132 1973 30 SI WA LEAH(REGENE 1973-03-03 19:00:00 TS -15.4157 110.423 spur-other 796 796 _________P____ -1 -15.4157 110.423 TC 42 993 17 244
1973060S14132 1973 30 SI WA LEAH(REGENE 1973-03-03 21:00:00 TS -15.6850 109.890 spur-other 816 812 _________P____ -1 -15.6850 109.890 TC 47 990 17 241
1973060S14132 1973 30 SI WA LEAH(REGENE 1973-03-03 22:00:00 TS -15.8274 109.642 spur-other 824 815 _________P____ -1 -15.8274 109.642 TC 49 988 16 238
1973060S14132 1973 30 SI WA LEAH(REGENE 1973-03-04 00:00:00 TS -16.1000 109.200 spur-other 821 819 _________O____ -1 -16.1000 109.200 TC 55 985 14 238
1973060S14132 1973 30 SI WA LEAH(REGENE 1973-03-04 01:00:00 TS -16.2086 109.005 spur-other 826 824 _________P____ -1 -16.2086 109.005 TC 56 983 12 239
1973060S14132 1973 30 SI WA LEAH(REGENE 1973-03-04 03:00:00 TS -16.4072 108.675 spur-other 829 828 _________P____ -1 -16.4072 108.675 TC 60 980 11 237
1973060S14132 1973 30 SI WA LEAH(REGENE 1973-03-04 04:00:00 TS -16.5027 108.536 spur-other 835 834 _________P____ -1 -16.5027 108.536 TC 61 978 9 231
1973060S14132 1973 30 SI WA LEAH(REGENE 1973-03-04 06:00:00 TS -16.7000 108.300 spur-other 834 826 _________O____ -1 -16.7000 108.300 TC 65 975 9 225
1973060S14132 1973 30 SI WA LEAH(REGENE 1973-03-04 07:00:00 TS -16.8160 108.207 spur-other 833 826 _________P____ -1 -16.8160 108.207 TC 65 974 9 213
1973060S14132 1973 30 SI WA LEAH(REGENE 1973-03-04 09:00:00 TS -17.0571 108.057 spur-other 818 818 _________P____ -1 -17.0571 108.057 TC 65 974 8 211
1973060S14132 1973 30 SI WA LEAH(REGENE 1973-03-04 10:00:00 TS -17.1767 107.984 spur-other 819 819 _________P____ -1 -17.1767 107.984 TC 65 974 8 216
1973060S14132 1973 30 SI WA LEAH(REGENE 1973-03-04 12:00:00 TS -17.4000 107.800 spur-other 821 821 _________O____ -1 -17.4000 107.800 TC 65 974 9 224
1973060S14132 1973 30 SI WA LEAH(REGENE 1973-03-04 13:00:00 TS -17.4948 107.664 spur-other 822 822 _________P____ -1 -17.4948 107.664 TC 65 973 10 239
1973060S14132 1973 30 SI WA LEAH(REGENE 1973-03-04 15:00:00 TS -17.6650 107.345 spur-other 843 843 _________P____ -1 -17.6650 107.345 TC 67 973 11 242
1973060S14132 1973 30 SI WA LEAH(REGENE 1973-03-04 16:00:00 TS -17.7442 107.168 spur-other 852 852 _________P____ -1 -17.7442 107.168 TC 68 973 11 246
1973060S14132 1973 30 SI WA LEAH(REGENE 1973-03-04 18:00:00 TS -17.9000 106.800 spur-other 875 875 _________O____ -1 -17.9000 106.800 TC 70 973 11 245
1973060S14132 1973 30 SI WA LEAH(REGENE 1973-03-04 19:00:00 TS -17.9858 106.628 spur-other 887 887 _________P____ -1 -17.9858 106.628 TC 70 973 11 243
1973060S14132 1973 30 SI WA LEAH(REGENE 1973-03-04 21:00:00 TS -18.1573 106.272 spur-other 904 904 _________P____ -1 -18.1573 106.272 TC 70 973 11 244
1973060S14132 1973 30 SI WA LEAH(REGENE 1973-03-04 22:00:00 TS -18.2410 106.088 spur-other 922 917 _________P____ -1 -18.2410 106.088 TC 70 973 12 246
1973060S14132 1973 30 SI WA LEAH(REGENE 1973-03-05 00:00:00 TS -18.4000 105.700 spur-other 947 947 _________O____ -1 -18.4000 105.700 TC 70 973 12 247
1973060S14132 1973 30 SI WA LEAH(REGENE 1973-03-05 01:00:00 TS -18.4776 105.492 spur-other 959 959 _________P____ -1 -18.4776 105.492 TC 68 974 13 250
1973060S14132 1973 30 SI WA LEAH(REGENE 1973-03-05 03:00:00 TS -18.6225 105.058 spur-other 990 990 _________P____ -1 -18.6225 105.058 TC 65 976 13 251
1973060S14132 1973 30 SI WA LEAH(REGENE 1973-03-05 04:00:00 TS -18.6879 104.836 spur-other 1013 1013 _________P____ -1 -18.6879 104.836 TC 63 977 13 254
1973060S14132 1973 30 SI WA LEAH(REGENE 1973-03-05 06:00:00 TS -18.8000 104.400 spur-other 1046 1046 _________O____ -1 -18.8000 104.400 TC 60 980 13 256
1973060S14132 1973 30 SI WA LEAH(REGENE 1973-03-05 07:00:00 TS -18.8447 104.189 spur-other 1065 1060 _________P____ -1 -18.8447 104.189 TC 59 980 12 259
1973060S14132 1973 30 SI WA LEAH(REGENE 1973-03-05 09:00:00 TS -18.9149 103.777 spur-other 1099 1099 _________P____ -1 -18.9149 103.777 TC 57 982 12 260
1973060S14132 1973 30 SI WA LEAH(REGENE 1973-03-05 10:00:00 TS -18.9441 103.579 spur-other 1118 1118 _________P____ -1 -18.9441 103.579 TC 56 983 11 261
1973060S14132 1973 30 SI WA LEAH(REGENE 1973-03-05 12:00:00 TS -19.0000 103.200 spur-other 1153 1153 _________O____ -1 -19.0000 103.200 TC 55 985 11 261
1973060S14132 1973 30 SI WA LEAH(REGENE 1973-03-05 13:00:00 TS -19.0306 103.022 spur-other 1172 1172 _________P____ -1 -19.0306 103.022 TC 54 985 10 259
1973060S14132 1973 30 SI WA LEAH(REGENE 1973-03-05 15:00:00 TS -19.0922 102.685 spur-other 1197 1197 _________P____ -1 -19.0922 102.685 TC 52 986 10 259
1973060S14132 1973 30 SI WA LEAH(REGENE 1973-03-05 16:00:00 TS -19.1252 102.522 spur-other 1217 1217 _________P____ -1 -19.1252 102.522 TC 51 986 9 257
1973060S14132 1973 30 SI WA LEAH(REGENE 1973-03-05 18:00:00 TS -19.2000 102.200 spur-other 1243 1243 _________O____ -1 -19.2000 102.200 TC 50 988 10 256
1973060S14132 1973 30 SI WA LEAH(REGENE 1973-03-05 19:00:00 TS -19.2443 102.025 spur-other 1262 1259 _________P____ -1 -19.2443 102.025 TC 49 988 10 254
1973060S14132 1973 30 SI WA LEAH(REGENE 1973-03-05 21:00:00 TS -19.3425 101.678 spur-other 1288 1288 _________P____ -1 -19.3425 101.678 TC 47 990 10 253
1973060S14132 1973 30 SI WA LEAH(REGENE 1973-03-05 22:00:00 TS -19.3946 101.510 spur-other 1305 1305 _________P____ -1 -19.3946 101.510 TC 46 990 10 251
1973060S14132 1973 30 SI WA LEAH(REGENE 1973-03-06 00:00:00 TS -19.5000 101.200 spur-other 1331 1331 _________O____ -1 -19.5000 101.200 TC 45 992 9 250
1973060S14132 1973 30 SI WA LEAH(REGENE 1973-03-06 01:00:00 TS -19.5473 101.056 spur-other 1341 1341 _________P____ -1 -19.5473 101.056 TC 44 992 8 249
1973060S14132 1973 30 SI WA LEAH(REGENE 1973-03-06 03:00:00 TS -19.6424 100.797 spur-other 1368 1365 _________P____ -1 -19.6424 100.797 TC 42 993 8 247
1973060S14132 1973 30 SI WA LEAH(REGENE 1973-03-06 04:00:00 TS -19.6920 100.685 spur-other 1375 1375 _________P____ -1 -19.6920 100.685 TC 41 993 6 241
1973060S14132 1973 30 SI WA LEAH(REGENE 1973-03-06 06:00:00 TS -19.8000 100.500 spur-other 1392 1392 _________O____ -1 -19.8000 100.500 TC 40 995 6 235
1973060S14132 1973 30 SI WA LEAH(REGENE 1973-03-06 07:00:00 TS -19.8623 100.429 spur-other 1400 1397 _________P____ -1 -19.8623 100.429 TC 38 995 5 220
1973060S14132 1973 30 SI WA LEAH(REGENE 1973-03-06 09:00:00 TS -19.9966 100.325 spur-other 1407 1404 _________P____ -1 -19.9966 100.325 TC 35 997 5 214
1973060S14132 1973 30 SI WA LEAH(REGENE 1973-03-06 10:00:00 TS -20.0656 100.283 spur-other 1404 1404 _________P____ -1 -20.0656 100.283 TC 33 998 5 210
1973060S14132 1973 30 SI WA LEAH(REGENE 1973-03-06 12:00:00 TS -20.2000 100.200 spur-other 1412 1412 _________O____ -1 -20.2000 100.200 TC 30 1000 5 215
1973060S14132 1973 30 SI WA LEAH(REGENE 1973-03-06 13:00:00 TS -20.2615 100.135 spur-other 1419 1419 _________P____ -1 -20.2615 100.135 TC 29 1000 5 228
1973060S14132 1973 30 SI WA LEAH(REGENE 1973-03-06 15:00:00 TS -20.3783 99.9891 spur-other 1427 1427 _________P____ -1 -20.3783 99.9891 TC 27 1001 5 231
1973060S14132 1973 30 SI WA LEAH(REGENE 1973-03-06 16:00:00 TS -20.4335 99.9112 spur-other 1437 1435 _________P____ -1 -20.4335 99.9112 TC 26 1001 6 234
1973060S14132 1973 30 SI WA LEAH(REGENE 1973-03-06 18:00:00 TS -20.5377 99.7501 spur-other 1445 1445 _________P____ -1 -20.5377 99.7501 TC 25 1002 5 236
1973060S14132 1973 30 SI WA LEAH(REGENE 1973-03-06 19:00:00 TS -20.5866 99.6690 spur-other 1453 1453 _________P____ -1 -20.5866 99.6690 TC 24 1002 5 238
1973060S14132 1973 30 SI WA LEAH(REGENE 1973-03-06 21:00:00 TS -20.6783 99.5110 spur-other 1471 1471 _________P____ -1 -20.6783 99.5110 TC 22 1003 5 238
1973060S14132 1973 30 SI WA LEAH(REGENE 1973-03-06 22:00:00 TS -20.7209 99.4362 spur-other 1481 1479 _________P____ -1 -20.7209 99.4362 TC 21 1003 5 238
1973060S14132 1973 30 SI WA LEAH(REGENE 1973-03-07 00:00:00 TS -20.8000 99.3000 spur-other 1490 1490 _________O____ -1 -20.8000 99.3000 TC 20 1004 4 238
1973060S14132 1973 30 SI WA LEAH(REGENE 1973-03-07 01:00:00 TS -20.8308 99.2506 spur-other 1490 1490 _________P____ -1 -20.8365 99.2404 TC 20 1004 3 236
1973060S14132 1973 30 SI WA LEAH(REGENE 1973-03-07 03:00:00 TS -20.8885 99.1588 spur-other 1498 1498 _________P____ -1 -20.9047 99.1359 TC 20 1004 3 236
1973060S14132 1973 30 SI WA LEAH(REGENE 1973-03-07 04:00:00 TS -20.9200 99.1113 spur-other 1508 1506 _________P____ -1 -20.9370 99.0889 TC 20 1004 4 233
1973060S14132 1973 30 SI WA LEAH(REGENE 1973-03-07 06:00:00 TS -21.0000 99.0000 spur-other 1516 _________O____ -1 -21.0000 99.0000 TC 20 1004 4 232

IBTrACS Databaseについて

本データベースは、米国NOAAが公開する1842年以降の世界の熱帯低気圧のベストトラックデータアーカイブInternational Best Track Archive for Climate Stewardship (IBTrACS)を、ウェブで閲覧しやすい形式に変換したものです。

最終更新日:2021-12-03